Grizzly Air Cargo 5376


PAKN
King Salmon Airport
King Salmon, Alaska, US
PADL
Dillingham Airport
Dillingham, Alaska, US

Activity Log

Date Flight Route Aircraft Duration
No Flights Yet

Route Details

Aircraft Information
Primary: Saab 340AF
Backup: Not Available
Route Data
Distance: 73nm
Sched. Duration: 0h 30m
Avg. Duration: 0h 00m (-30m)
Times Flown: 0
Recm'd Route: AKN V453 DLG
Planned Altitude: 12,000ft
Origin Wx: PAKN 270954Z 33006KT 10SM OVC120 M13/M18 A2964 RMK AO2 SLP040 T11281178
Dest. Wx: PADL 270956Z AUTO 12004KT 10SM OVC027 M08/M13 A2970 RMK AO2 SLP063 T10831133 FZRANO PNO $
Notes:

Financial History
Total Freight: 0lbs
Average Load: 0lbs/flt
Fuel Used: 0lbs
Avg. Fuel Used: 0lbs/flt
Fuel Expense: $0
Avg. Fuel Expense: $0
Avg. Fuel Cost: $0/lbs
Total Gross Income: $0
Pilot Pay: $0
Total Expenses: $0
Total Revenue: $0
Average Revenue: $0